Time;durP1;ratioP1;P1;durP2;ratioP2;P2;SDS_P1;SDS_P2;PMS_P1;PMS_P2;Temp;Humidity;BMP_temperature;BMP_pressure;BME280_temperature;BME280_humidity;BME280_pressure;Samples;Min_cycle;Max_cycle;Signal;HPM_P1;HPM_P2
2021/12/17 00:01:04;;;;;;;63.40;26.52;;;10.70;99.90;;;;;;4120701;28;20476;-74
2021/12/17 00:05:11;;;;;;;54.15;26.10;;;10.70;99.90;;;;;;4122365;28;20435;-74
2021/12/17 00:07:14;;;;;;;58.20;27.13;;;10.70;99.90;;;;;;4120304;28;20159;-74
2021/12/17 00:09:14;;;;;;;54.10;25.20;;;10.70;99.90;;;;;;4124182;28;20027;-74
2021/12/17 00:11:16;;;;;;;57.30;26.88;;;10.70;99.90;;;;;;4126067;28;20590;-74
2021/12/17 00:13:18;;;;;;;53.85;25.80;;;10.70;99.90;;;;;;4127646;28;20038;-74
2021/12/17 00:15:19;;;;;;;56.47;26.95;;;10.70;99.90;;;;;;4125736;28;20388;-74
2021/12/17 00:17:26;;;;;;;46.83;24.05;;;10.70;99.90;;;;;;4127747;28;20041;-74
2021/12/17 00:49:04;;;;;;;44.00;24.15;;;10.60;99.90;;;;;;4121067;28;20073;-74
2021/12/17 00:51:59;;;;;;;44.42;23.25;;;10.50;99.90;;;;;;4130958;28;20037;-74
2021/12/17 00:53:32;;;;;;;44.05;23.58;;;10.60;99.90;;;;;;4115154;28;20086;-74
2021/12/17 00:55:33;;;;;;;44.80;24.00;;;10.60;99.90;;;;;;4120666;28;20097;-74
2021/12/17 00:57:41;;;;;;;46.95;25.00;;;10.50;99.90;;;;;;4131749;28;20030;-74
2021/12/17 00:59:50;;;;;;;48.65;24.90;;;10.60;99.90;;;;;;4131404;28;20026;-74
2021/12/17 01:01:52;;;;;;;49.33;26.95;;;10.60;99.90;;;;;;4125960;28;20050;-74
2021/12/17 01:03:55;;;;;;;45.38;24.08;;;10.50;99.90;;;;;;4122146;28;20031;-74
2021/12/17 01:05:56;;;;;;;46.85;24.77;;;10.60;99.90;;;;;;4120732;28;20034;-74
2021/12/17 01:07:58;;;;;;;42.13;23.75;;;10.50;99.90;;;;;;4124261;28;20106;-74
2021/12/17 01:10:00;;;;;;;42.75;23.08;;;10.50;99.90;;;;;;4130870;28;20494;-74
2021/12/17 01:12:01;;;;;;;42.90;24.40;;;10.60;99.90;;;;;;4121522;28;20060;-74
2021/12/17 01:14:03;;;;;;;43.85;24.20;;;10.60;99.90;;;;;;4126597;28;20285;-74
2021/12/17 01:16:04;;;;;;;42.30;23.75;;;10.60;99.90;;;;;;4125081;28;20068;-74
2021/12/17 01:18:11;;;;;;;45.17;24.13;;;10.60;99.90;;;;;;4122951;28;20030;-74
2021/12/17 01:20:50;;;;;;;44.08;24.48;;;10.60;99.90;;;;;;4130409;28;20461;-74
2021/12/17 01:24:58;;;;;;;44.70;24.35;;;10.60;99.90;;;;;;4122026;28;20030;-74
2021/12/17 01:36:17;;;;;;;47.25;24.90;;;10.60;99.90;;;;;;4122508;28;20038;-74
2021/12/17 01:42:45;;;;;;;44.38;24.50;;;10.60;99.90;;;;;;4123988;28;20121;-74
2021/12/17 01:44:45;;;;;;;39.78;22.77;;;10.60;99.90;;;;;;4125347;28;20033;-74
2021/12/17 01:46:50;;;;;;;42.22;23.17;;;10.50;99.90;;;;;;4124358;28;20031;-74
2021/12/17 01:49:04;;;;;;;46.90;25.33;;;10.60;99.90;;;;;;4120343;28;20030;-74
2021/12/17 02:00:03;;;;;;;42.92;24.00;;;10.60;99.90;;;;;;4123889;28;20045;-74
2021/12/17 02:02:07;;;;;;;42.13;22.88;;;10.60;99.90;;;;;;4102951;28;20047;-74
2021/12/17 02:04:08;;;;;;;41.72;23.30;;;10.60;99.90;;;;;;4125174;28;20479;-74
2021/12/17 02:06:08;;;;;;;42.83;23.77;;;10.60;99.90;;;;;;4129686;28;20068;-73
2021/12/17 02:08:10;;;;;;;37.83;20.95;;;10.60;99.90;;;;;;4121711;28;20031;-74
2021/12/17 02:22:08;;;;;;;41.10;22.60;;;10.60;99.90;;;;;;4118697;28;20518;-74
2021/12/17 02:33:14;;;;;;;39.58;22.02;;;10.60;99.90;;;;;;4074363;29;20102;-74
2021/12/17 02:35:28;;;;;;;43.53;23.42;;;10.60;99.90;;;;;;4099501;28;20078;-74
2021/12/17 02:37:32;;;;;;;43.42;22.98;;;10.60;99.90;;;;;;4122854;28;20031;-74
2021/12/17 02:42:22;;;;;;;42.78;22.17;;;10.60;99.90;;;;;;4124274;28;20038;-74
2021/12/17 02:46:34;;;;;;;43.65;23.80;;;10.60;99.90;;;;;;4109755;28;20467;-74
2021/12/17 02:48:38;;;;;;;39.95;21.63;;;10.50;99.90;;;;;;4138414;28;20109;-74
2021/12/17 02:50:46;;;;;;;41.53;22.27;;;10.50;99.90;;;;;;4121928;28;20034;-74
2021/12/17 02:52:48;;;;;;;40.05;20.88;;;10.50;99.90;;;;;;4119987;28;20031;-74
2021/12/17 02:54:48;;;;;;;40.10;21.15;;;10.50;99.90;;;;;;4106687;28;20114;-74
2021/12/17 02:56:49;;;;;;;42.90;22.52;;;10.50;99.90;;;;;;4120453;28;20034;-74
2021/12/17 02:58:51;;;;;;;41.80;22.38;;;10.50;99.90;;;;;;4106471;28;20027;-74
2021/12/17 03:00:52;;;;;;;46.55;23.42;;;10.50;99.90;;;;;;4125404;28;20066;-74
2021/12/17 03:02:55;;;;;;;64.35;30.52;;;10.40;99.90;;;;;;4129773;28;20038;-74
2021/12/17 03:04:56;;;;;;;53.70;25.65;;;10.40;99.90;;;;;;4132890;28;20471;-74
2021/12/17 03:06:57;;;;;;;49.55;25.27;;;10.30;99.90;;;;;;4110900;28;20089;-74
2021/12/17 03:08:58;;;;;;;47.63;23.58;;;10.30;99.90;;;;;;4118518;28;20490;-74
2021/12/17 03:10:59;;;;;;;48.78;23.95;;;10.30;99.90;;;;;;4132629;28;20030;-74
2021/12/17 03:13:03;;;;;;;44.78;22.25;;;10.30;99.90;;;;;;4128595;28;20126;-74
2021/12/17 03:24:18;;;;;;;45.88;23.48;;;10.30;99.90;;;;;;4102588;29;20019;-74
2021/12/17 03:26:22;;;;;;;46.03;22.83;;;10.30;99.90;;;;;;4115880;28;20435;-74
2021/12/17 03:28:22;;;;;;;46.22;22.48;;;10.30;99.90;;;;;;4102505;29;20500;-74
2021/12/17 03:30:23;;;;;;;45.97;22.65;;;10.30;99.90;;;;;;4100345;29;20031;-74
2021/12/17 03:32:24;;;;;;;45.30;23.50;;;10.30;99.90;;;;;;4117259;28;20055;-74
2021/12/17 03:34:24;;;;;;;44.05;22.63;;;10.30;99.90;;;;;;4085535;29;20024;-74
2021/12/17 03:36:27;;;;;;;45.38;22.48;;;10.30;99.90;;;;;;4116305;28;20082;-73
2021/12/17 03:38:28;;;;;;;;;;;10.30;99.90;;;;;;4101547;29;20034;-74
2021/12/17 03:40:31;;;;;;;48.38;22.77;;;10.30;99.90;;;;;;4100301;28;19910;-74
2021/12/17 03:42:32;;;;;;;47.55;23.02;;;10.30;99.90;;;;;;4102408;28;20035;-73
2021/12/17 03:44:33;;;;;;;48.72;22.98;;;10.30;99.90;;;;;;4102360;29;20543;-74
2021/12/17 03:46:34;;;;;;;46.78;23.15;;;10.30;99.90;;;;;;4116507;28;20173;-74
2021/12/17 03:48:38;;;;;;;48.22;23.02;;;10.30;99.90;;;;;;4116756;28;20027;-74
2021/12/17 03:50:38;;;;;;;43.83;21.83;;;10.30;99.90;;;;;;4116123;28;20411;-74
2021/12/17 03:52:39;;;;;;;47.42;23.88;;;10.20;99.90;;;;;;4117150;28;20106;-74
2021/12/17 03:54:40;;;;;;;43.72;23.15;;;10.20;99.90;;;;;;4102250;28;20066;-74
2021/12/17 03:56:40;;;;;;;42.85;21.38;;;10.20;99.90;;;;;;4100383;29;20079;-74
2021/12/17 03:58:41;;;;;;;46.10;21.55;;;10.20;99.90;;;;;;4100569;29;20046;-74
2021/12/17 04:00:42;;;;;;;44.42;22.33;;;10.20;99.90;;;;;;4101321;29;20463;-74
2021/12/17 04:02:43;;;;;;;44.13;22.70;;;10.20;99.90;;;;;;4100877;29;20510;-74
2021/12/17 04:04:44;;;;;;;43.20;21.35;;;10.20;99.90;;;;;;4100965;29;20031;-74
2021/12/17 04:06:45;;;;;;;40.65;21.05;;;10.20;99.90;;;;;;4101293;29;20023;-74
2021/12/17 04:08:46;;;;;;;45.78;22.92;;;10.20;99.90;;;;;;4116660;28;20061;-73
2021/12/17 04:10:50;;;;;;;39.38;20.67;;;10.20;99.90;;;;;;4101245;28;20038;-74
2021/12/17 04:12:58;;;;;;;39.38;20.40;;;10.20;99.90;;;;;;4102155;28;20446;-74
2021/12/17 04:15:00;;;;;;;40.90;21.95;;;10.20;99.90;;;;;;4116849;28;20034;-74
2021/12/17 04:17:05;;;;;;;43.10;21.75;;;10.20;99.90;;;;;;4099690;28;20050;-74
2021/12/17 04:19:06;;;;;;;42.10;20.95;;;10.20;99.90;;;;;;4102061;28;20046;-74
2021/12/17 04:21:14;;;;;;;39.60;20.77;;;10.20;99.90;;;;;;4115795;28;20039;-74
2021/12/17 04:23:16;;;;;;;42.60;21.48;;;10.20;99.90;;;;;;4101681;28;20032;-74
2021/12/17 04:25:17;;;;;;;42.50;20.55;;;10.20;99.90;;;;;;4099617;29;20035;-74
2021/12/17 04:27:17;;;;;;;40.15;20.30;;;10.20;99.90;;;;;;4100224;29;20411;-74
2021/12/17 04:29:20;;;;;;;39.35;19.30;;;10.20;99.90;;;;;;4100422;29;20431;-74
2021/12/17 04:31:24;;;;;;;;;;;10.20;99.90;;;;;;4101349;28;20039;-74
2021/12/17 04:33:25;;;;;;;40.72;20.15;;;10.20;99.90;;;;;;4101657;28;20385;-74
2021/12/17 04:35:26;;;;;;;43.22;20.88;;;10.20;99.90;;;;;;4115542;28;20074;-74
2021/12/17 04:37:26;;;;;;;41.80;20.17;;;10.20;99.90;;;;;;4101369;28;20106;-74
2021/12/17 04:39:27;;;;;;;41.00;20.63;;;10.20;99.90;;;;;;4101438;28;20038;-74
2021/12/17 04:43:38;;;;;;;39.95;19.35;;;10.20;99.90;;;;;;4101602;28;20480;-74
2021/12/17 04:45:45;;;;;;;40.53;20.30;;;10.20;99.90;;;;;;4115432;28;20065;-74
2021/12/17 04:59:08;;;;;;;43.60;21.05;;;10.20;99.90;;;;;;4101300;29;20381;-74
2021/12/17 05:01:12;;;;;;;44.88;21.23;;;10.20;99.90;;;;;;4098504;29;20138;-74
2021/12/17 05:03:13;;;;;;;42.88;20.35;;;10.20;99.90;;;;;;4100635;28;20558;-74
2021/12/17 05:05:16;;;;;;;40.78;19.80;;;10.20;99.90;;;;;;4100576;28;20032;-74
2021/12/17 05:07:17;;;;;;;42.67;19.08;;;10.20;99.90;;;;;;4100010;29;20176;-74
2021/12/17 05:09:29;;;;;;;38.90;19.00;;;10.20;99.90;;;;;;4100997;29;20468;-74
2021/12/17 05:20:49;;;;;;;42.58;20.15;;;10.20;99.90;;;;;;4115084;28;20091;-74
2021/12/17 05:22:55;;;;;;;40.65;18.50;;;10.20;99.90;;;;;;4099547;29;20035;-74
2021/12/17 05:24:56;;;;;;;39.75;18.63;;;10.20;99.90;;;;;;4115612;28;20038;-73
2021/12/17 05:26:56;;;;;;;38.85;18.95;;;10.20;99.90;;;;;;4100076;28;20027;-74
2021/12/17 05:28:57;;;;;;;42.38;19.13;;;10.20;99.90;;;;;;4100783;29;20110;-74
2021/12/17 05:30:58;;;;;;;45.15;20.08;;;10.20;99.90;;;;;;4114977;28;20456;-74
2021/12/17 05:32:58;;;;;;;44.83;20.15;;;10.20;99.90;;;;;;4099628;29;20034;-74
2021/12/17 05:34:59;;;;;;;42.75;19.92;;;10.20;99.90;;;;;;4100604;29;20038;-74
2021/12/17 05:37:00;;;;;;;47.20;19.95;;;10.20;99.90;;;;;;4114601;28;20101;-74
2021/12/17 05:39:00;;;;;;;47.22;19.63;;;10.20;99.90;;;;;;4100771;28;20038;-74
2021/12/17 05:41:01;;;;;;;45.65;19.58;;;10.30;99.90;;;;;;4098975;29;20092;-74
2021/12/17 05:43:05;;;;;;;46.20;20.65;;;10.20;99.90;;;;;;4100463;29;20033;-74
2021/12/17 05:45:32;;;;;;;46.13;19.52;;;10.30;99.90;;;;;;4087341;29;20032;-74
2021/12/17 05:47:33;;;;;;;45.47;20.95;;;10.30;99.90;;;;;;4129452;28;20027;-74
2021/12/17 05:49:34;;;;;;;49.88;21.80;;;10.30;99.90;;;;;;4132153;28;20026;-74
2021/12/17 05:51:34;;;;;;;47.42;21.73;;;10.20;99.90;;;;;;4131927;28;20476;-74
2021/12/17 05:53:35;;;;;;;47.33;20.75;;;10.20;99.90;;;;;;4132712;28;20030;-74
2021/12/17 05:55:36;;;;;;;45.42;20.92;;;10.30;99.90;;;;;;4130638;28;20030;-74
2021/12/17 05:57:37;;;;;;;47.17;21.52;;;10.30;99.90;;;;;;4130979;28;20044;-74
2021/12/17 05:59:38;;;;;;;44.47;20.50;;;10.20;99.90;;;;;;4132522;28;20030;-74
2021/12/17 06:01:39;;;;;;;41.92;18.80;;;10.30;99.90;;;;;;4130609;28;20046;-74
2021/12/17 06:03:39;;;;;;;43.20;18.58;;;10.30;99.90;;;;;;4132497;28;20372;-74
2021/12/17 06:05:40;;;;;;;45.55;19.60;;;10.20;99.90;;;;;;4130425;28;20025;-74
2021/12/17 06:07:41;;;;;;;48.33;20.67;;;10.20;99.90;;;;;;4132318;28;20089;-74
2021/12/17 06:09:42;;;;;;;48.33;20.67;;;10.20;99.90;;;;;;4115047;28;20023;-74
2021/12/17 06:11:42;;;;;;;44.30;19.27;;;10.20;99.90;;;;;;4131729;28;20037;-74
2021/12/17 06:13:43;;;;;;;45.33;19.85;;;10.20;99.90;;;;;;4132239;28;20446;-74
2021/12/17 06:15:44;;;;;;;44.50;20.00;;;10.20;99.90;;;;;;4131525;28;20061;-74
2021/12/17 06:17:45;;;;;;;42.67;18.92;;;10.20;99.90;;;;;;4131043;28;20030;-74
2021/12/17 06:19:47;;;;;;;46.92;20.13;;;10.20;99.90;;;;;;4132219;28;20053;-74
2021/12/17 06:21:48;;;;;;;42.58;18.40;;;10.20;99.90;;;;;;4131720;28;20371;-74
2021/12/17 06:23:49;;;;;;;37.60;16.88;;;10.20;99.90;;;;;;4114636;28;20029;-74
2021/12/17 06:25:49;;;;;;;42.33;18.38;;;10.20;99.90;;;;;;4130284;28;20057;-74
2021/12/17 06:27:50;;;;;;;39.40;17.10;;;10.10;99.90;;;;;;4132303;28;20027;-74
2021/12/17 06:29:52;;;;;;;41.05;17.27;;;10.20;99.90;;;;;;4131048;28;20026;-74
2021/12/17 06:31:53;;;;;;;37.15;17.95;;;10.10;99.90;;;;;;4131706;28;20034;-74
2021/12/17 06:33:53;;;;;;;29.40;14.70;;;10.10;99.90;;;;;;4132023;28;20037;-73
2021/12/17 06:35:54;;;;;;;36.72;16.17;;;10.10;99.90;;;;;;4131457;28;20034;-74
2021/12/17 06:37:54;;;;;;;33.42;15.32;;;10.20;99.90;;;;;;4130950;28;20037;-74
2021/12/17 06:39:55;;;;;;;34.80;16.27;;;10.20;99.90;;;;;;4132230;28;20062;-73
2021/12/17 06:41:56;;;;;;;32.03;15.27;;;10.10;99.90;;;;;;4130131;28;20060;-74
2021/12/17 06:43:58;;;;;;;35.38;14.77;;;10.10;99.90;;;;;;4130955;28;20030;-74
2021/12/17 06:48:23;;;;;;;31.77;13.75;;;10.10;99.90;;;;;;4130864;28;20042;-74
2021/12/17 06:55:16;;;;;;;31.15;14.15;;;10.00;99.90;;;;;;4131768;28;20030;-74
2021/12/17 06:59:39;;;;;;;30.35;14.27;;;10.00;99.90;;;;;;4131971;28;20036;-74
2021/12/17 07:06:14;;;;;;;29.17;13.30;;;10.00;99.90;;;;;;4134385;28;20027;-74
2021/12/17 07:10:47;;;;;;;30.30;13.48;;;10.00;99.90;;;;;;4128785;28;20018;-74
2021/12/17 07:17:39;;;;;;;26.73;12.75;;;10.00;99.90;;;;;;4126975;28;20108;-74
2021/12/17 07:22:19;;;;;;;27.50;12.43;;;10.00;99.90;;;;;;4121813;28;20052;-74
2021/12/17 07:31:07;;;;;;;24.27;12.02;;;10.00;99.90;;;;;;4128122;28;20030;-74
2021/12/17 07:33:57;;;;;;;25.02;11.68;;;10.00;99.90;;;;;;4115533;28;20487;-74
2021/12/17 07:36:07;;;;;;;25.73;11.85;;;10.00;99.90;;;;;;4105582;28;20023;-74
2021/12/17 07:40:27;;;;;;;24.92;11.07;;;10.00;99.90;;;;;;4118443;28;20069;-74
2021/12/17 07:42:29;;;;;;;25.15;11.02;;;10.00;99.90;;;;;;4116256;28;20031;-74
2021/12/17 07:44:29;;;;;;;30.70;11.30;;;10.00;99.90;;;;;;4126769;28;20034;-74
2021/12/17 07:46:32;;;;;;;25.02;11.90;;;10.00;99.90;;;;;;4117040;28;20492;-74
2021/12/17 07:48:33;;;;;;;22.50;11.13;;;10.00;99.90;;;;;;4127623;28;20022;-73
2021/12/17 07:50:34;;;;;;;26.13;11.98;;;10.00;99.90;;;;;;4125929;28;20491;-73
2021/12/17 07:52:35;;;;;;;21.55;10.70;;;10.00;99.90;;;;;;4119202;28;20034;-73
2021/12/17 07:54:35;;;;;;;23.10;11.55;;;10.00;99.90;;;;;;4123296;28;20042;-73
2021/12/17 07:56:39;;;;;;;30.60;12.55;;;10.00;99.90;;;;;;4115912;28;20034;-73
2021/12/17 07:58:40;;;;;;;22.15;10.73;;;10.10;99.90;;;;;;4126482;28;20026;-74
2021/12/17 08:00:41;;;;;;;21.25;10.43;;;10.00;99.90;;;;;;4116232;28;20448;-74
2021/12/17 08:02:42;;;;;;;24.65;11.15;;;10.10;99.90;;;;;;4130688;28;20126;-74
2021/12/17 08:04:43;;;;;;;23.35;10.98;;;10.10;99.90;;;;;;4123818;28;20150;-74
2021/12/17 08:06:44;;;;;;;23.25;10.88;;;10.00;99.90;;;;;;4126042;28;20022;-74
2021/12/17 08:08:44;;;;;;;22.02;10.80;;;10.00;99.90;;;;;;4106564;28;20098;-74
2021/12/17 08:10:48;;;;;;;21.10;9.75;;;10.00;99.90;;;;;;4127924;28;20065;-74
2021/12/17 08:12:53;;;;;;;23.83;10.88;;;10.00;99.90;;;;;;4105586;28;20063;-73
2021/12/17 08:14:54;;;;;;;20.63;10.63;;;10.00;99.90;;;;;;4122068;28;20115;-73
2021/12/17 08:17:14;;;;;;;21.42;10.68;;;10.00;99.90;;;;;;4093839;29;20458;-73
2021/12/17 08:26:07;;;;;;;23.05;10.93;;;10.00;99.90;;;;;;4102071;28;20034;-73
2021/12/17 08:28:12;;;;;;;19.70;9.95;;;10.00;99.90;;;;;;4122534;28;20022;-73
2021/12/17 08:32:14;;;;;;;22.05;10.52;;;10.00;99.90;;;;;;4121312;28;20027;-74
2021/12/17 08:34:14;;;;;;;19.75;9.52;;;10.00;99.90;;;;;;4127516;28;20029;-74
2021/12/17 08:36:15;;;;;;;19.98;9.88;;;10.00;99.90;;;;;;4104203;28;20026;-74
2021/12/17 08:38:18;;;;;;;20.77;9.48;;;10.00;99.90;;;;;;4108496;28;20074;-75
2021/12/17 08:40:18;;;;;;;19.50;9.45;;;10.00;99.90;;;;;;4124972;28;20083;-73
2021/12/17 08:42:19;;;;;;;18.15;9.10;;;10.00;99.90;;;;;;4126456;28;20479;-73
2021/12/17 08:44:20;;;;;;;18.75;8.23;;;10.00;99.90;;;;;;4104483;28;20022;-75
2021/12/17 08:46:21;;;;;;;20.50;9.38;;;10.00;99.90;;;;;;4123562;28;20038;-74
2021/12/17 08:48:22;;;;;;;21.55;10.68;;;9.90;99.90;;;;;;4123915;28;20027;-73
2021/12/17 08:50:23;;;;;;;21.27;10.80;;;10.00;99.90;;;;;;4130822;28;20069;-73
2021/12/17 08:52:24;;;;;;;20.20;10.43;;;9.90;99.90;;;;;;4122313;28;20471;-73
2021/12/17 08:54:24;;;;;;;22.23;10.82;;;10.00;99.90;;;;;;4131545;28;20041;-74
2021/12/17 08:56:30;;;;;;;22.63;11.07;;;10.00;99.90;;;;;;4121429;28;20061;-74
2021/12/17 08:58:32;;;;;;;26.02;11.27;;;10.00;99.90;;;;;;4132110;28;20056;-74
2021/12/17 09:00:32;;;;;;;25.90;11.88;;;10.00;99.90;;;;;;4121360;28;20030;-73
2021/12/17 09:02:36;;;;;;;23.17;12.13;;;10.00;99.90;;;;;;4122240;28;20058;-73
2021/12/17 09:04:36;;;;;;;24.30;11.25;;;10.00;99.90;;;;;;4121643;28;20395;-74
2021/12/17 09:06:37;;;;;;;26.13;12.88;;;10.00;99.90;;;;;;4130518;28;20031;-73
2021/12/17 09:08:38;;;;;;;26.02;12.20;;;10.00;99.90;;;;;;4120996;28;20106;-73
2021/12/17 09:10:39;;;;;;;31.63;13.27;;;10.00;99.90;;;;;;4121709;28;20031;-74
2021/12/17 09:12:41;;;;;;;29.13;13.45;;;10.00;99.90;;;;;;4131223;28;20531;-73
2021/12/17 09:14:42;;;;;;;25.90;13.02;;;10.00;99.90;;;;;;4121011;28;20039;-73
2021/12/17 09:16:43;;;;;;;24.30;12.52;;;10.00;99.90;;;;;;4122066;28;20551;-73
2021/12/17 09:18:45;;;;;;;25.67;13.02;;;10.00;99.90;;;;;;4126568;28;20103;-73
2021/12/17 09:20:45;;;;;;;23.20;11.80;;;10.00;99.90;;;;;;4105279;28;20519;-73
2021/12/17 09:22:46;;;;;;;27.52;13.32;;;10.10;99.90;;;;;;4093084;28;20041;-73
2021/12/17 09:24:47;;;;;;;25.92;12.65;;;10.10;99.90;;;;;;4120161;28;20065;-73
2021/12/17 09:26:47;;;;;;;27.55;13.05;;;10.10;99.90;;;;;;4108894;28;20498;-73
2021/12/17 09:28:51;;;;;;;25.45;12.07;;;10.10;99.90;;;;;;4109424;28;20030;-73
2021/12/17 09:30:52;;;;;;;25.23;12.07;;;10.10;99.90;;;;;;4121293;28;20035;-73
2021/12/17 09:32:52;;;;;;;27.30;12.75;;;10.10;99.90;;;;;;4131230;28;20026;-73
2021/12/17 09:34:53;;;;;;;20.90;11.00;;;10.20;99.90;;;;;;4125280;28;20031;-73
2021/12/17 09:36:54;;;;;;;20.63;10.68;;;10.10;99.90;;;;;;4125291;28;20030;-73
2021/12/17 09:38:55;;;;;;;23.92;12.07;;;10.20;99.90;;;;;;4131420;28;20041;-73
2021/12/17 09:40:56;;;;;;;22.90;11.23;;;10.20;99.90;;;;;;4123869;28;20034;-73
2021/12/17 09:42:58;;;;;;;22.45;10.98;;;10.20;99.90;;;;;;4126437;28;20153;-73
2021/12/17 09:44:58;;;;;;;23.95;11.60;;;10.20;99.90;;;;;;4122878;28;20027;-74
2021/12/17 09:47:00;;;;;;;21.33;11.32;;;10.10;99.90;;;;;;4121415;28;20029;-74
2021/12/17 09:49:01;;;;;;;21.83;10.85;;;10.10;99.90;;;;;;4131250;28;20042;-73
2021/12/17 09:51:04;;;;;;;26.33;12.90;;;10.00;99.90;;;;;;4124438;28;20027;-73
2021/12/17 09:53:05;;;;;;;21.05;11.32;;;9.90;99.90;;;;;;4121829;28;20546;-73
2021/12/17 09:55:08;;;;;;;20.02;10.75;;;9.90;99.90;;;;;;4130520;28;20034;-74
2021/12/17 09:57:08;;;;;;;20.00;10.13;;;10.00;99.90;;;;;;4130879;28;20458;-73
2021/12/17 09:59:10;;;;;;;20.25;10.63;;;9.90;99.90;;;;;;4121718;28;20039;-73
2021/12/17 10:01:10;;;;;;;22.92;11.07;;;9.90;99.90;;;;;;4120474;28;20153;-73
2021/12/17 10:03:11;;;;;;;19.02;10.20;;;9.90;99.90;;;;;;4124452;28;20035;-73
2021/12/17 10:05:18;;;;;;;19.77;9.88;;;9.90;99.90;;;;;;4117982;28;20467;-72
2021/12/17 10:07:24;;;;;;;19.33;9.27;;;9.90;99.90;;;;;;4124826;28;20031;-73
2021/12/17 10:09:33;;;;;;;19.92;10.05;;;10.00;99.90;;;;;;4098555;29;20055;-73
2021/12/17 10:11:34;;;;;;;16.42;9.50;;;10.00;99.90;;;;;;4106927;28;20031;-73
2021/12/17 10:13:35;;;;;;;19.08;10.32;;;10.00;99.90;;;;;;4114585;28;20542;-73
2021/12/17 10:15:37;;;;;;;19.27;9.73;;;10.00;99.90;;;;;;4119239;28;20439;-73
2021/12/17 10:17:58;;;;;;;19.55;10.13;;;10.10;99.90;;;;;;4125770;28;20109;-73
2021/12/17 10:19:59;;;;;;;19.73;10.18;;;10.00;99.90;;;;;;4115116;28;20031;-73
2021/12/17 10:22:14;;;;;;;17.17;9.30;;;10.00;99.90;;;;;;4122467;28;20037;-73
2021/12/17 10:24:23;;;;;;;17.02;8.63;;;10.00;99.90;;;;;;4121453;28;20027;-73
2021/12/17 10:26:26;;;;;;;21.15;9.90;;;10.00;99.90;;;;;;4124505;28;20027;-73
2021/12/17 10:28:27;;;;;;;;;;;10.10;99.90;;;;;;4122174;28;20146;-73
2021/12/17 10:30:29;;;;;;;17.92;9.02;;;10.10;99.90;;;;;;4121235;28;20341;-73
2021/12/17 10:32:30;;;;;;;16.80;8.90;;;10.00;99.90;;;;;;4101263;28;20031;-73
2021/12/17 10:34:30;;;;;;;20.45;10.07;;;10.10;99.90;;;;;;4117711;28;20494;-72
2021/12/17 10:36:36;;;;;;;21.98;10.55;;;10.10;99.90;;;;;;4126357;28;20045;-73
2021/12/17 10:38:37;;;;;;;18.15;9.52;;;10.10;99.90;;;;;;4108529;28;20031;-73
2021/12/17 10:40:53;;;;;;;17.70;9.00;;;10.10;99.90;;;;;;4088129;29;20033;-73
2021/12/17 10:43:04;;;;;;;23.33;10.65;;;10.20;99.90;;;;;;4120395;28;20037;-73
2021/12/17 10:45:12;;;;;;;17.35;9.02;;;10.20;99.90;;;;;;4115069;28;20026;-73
2021/12/17 10:47:19;;;;;;;18.75;9.85;;;10.20;99.90;;;;;;4117678;28;20026;-73
2021/12/17 10:49:24;;;;;;;17.48;9.35;;;10.20;99.90;;;;;;4108721;28;20396;-72
2021/12/17 10:53:32;;;;;;;17.80;9.52;;;10.30;99.90;;;;;;4124450;28;20086;-72
2021/12/17 10:55:33;;;;;;;17.50;9.25;;;10.30;99.90;;;;;;4123204;28;20023;-72
2021/12/17 10:57:33;;;;;;;22.58;11.10;;;10.30;99.90;;;;;;4124245;28;20023;-72
2021/12/17 10:59:36;;;;;;;19.10;9.80;;;10.20;99.90;;;;;;4130414;28;20468;-72
2021/12/17 11:01:44;;;;;;;16.75;8.55;;;10.30;99.90;;;;;;4121208;28;20054;-72
2021/12/17 11:03:45;;;;;;;20.23;9.20;;;10.30;99.90;;;;;;4128322;28;20030;-72
2021/12/17 11:05:46;;;;;;;20.77;9.95;;;10.30;99.90;;;;;;4126620;28;20031;-72
2021/12/17 11:07:48;;;;;;;20.58;10.20;;;10.20;99.90;;;;;;4131643;28;20510;-72
2021/12/17 11:09:53;;;;;;;17.42;9.55;;;10.30;99.90;;;;;;4133200;28;20022;-72
2021/12/17 11:11:55;;;;;;;21.70;10.20;;;10.30;99.90;;;;;;4127148;28;20034;-72
2021/12/17 11:13:57;;;;;;;18.98;9.82;;;10.30;99.90;;;;;;4127284;28;20033;-72
2021/12/17 11:15:58;;;;;;;21.15;10.32;;;10.30;99.90;;;;;;4121994;28;20293;-72
2021/12/17 11:18:02;;;;;;;19.08;10.38;;;10.30;99.90;;;;;;4122247;28;20365;-72
2021/12/17 11:20:07;;;;;;;19.70;9.55;;;10.40;99.90;;;;;;4127374;28;20037;-72
2021/12/17 11:22:08;;;;;;;17.77;9.43;;;10.30;99.90;;;;;;4128162;28;20503;-72
2021/12/17 11:24:09;;;;;;;17.10;9.38;;;10.40;99.90;;;;;;4128733;28;20030;-72
2021/12/17 11:26:10;;;;;;;17.92;8.82;;;10.40;99.90;;;;;;4125839;28;20022;-72
2021/12/17 11:28:11;;;;;;;16.40;9.20;;;10.40;99.90;;;;;;4103404;28;20034;-72
2021/12/17 11:30:15;;;;;;;18.60;9.07;;;10.40;99.90;;;;;;4122377;28;20034;-72
2021/12/17 11:32:18;;;;;;;17.30;9.15;;;10.40;99.90;;;;;;4128911;28;20040;-72
2021/12/17 11:34:19;;;;;;;17.60;8.77;;;10.40;99.90;;;;;;4124626;28;20573;-72
2021/12/17 11:36:20;;;;;;;17.30;8.55;;;10.40;99.90;;;;;;4123202;28;20031;-72
2021/12/17 11:38:29;;;;;;;15.68;8.73;;;10.50;99.90;;;;;;4123497;28;20110;-72
2021/12/17 11:40:52;;;;;;;15.88;8.55;;;10.40;99.90;;;;;;4110584;28;20061;-72
2021/12/17 11:43:04;;;;;;;15.10;8.23;;;10.40;99.90;;;;;;4127536;28;20031;-72
2021/12/17 11:45:25;;;;;;;16.33;8.50;;;10.40;99.90;;;;;;4115772;28;20034;-72
2021/12/17 11:47:33;;;;;;;14.48;8.30;;;10.40;99.90;;;;;;4120566;28;20030;-72
2021/12/17 11:49:49;;;;;;;14.70;8.77;;;10.40;99.90;;;;;;4127015;28;20034;-72
2021/12/17 11:51:55;;;;;;;16.30;8.95;;;10.40;99.90;;;;;;4124482;28;20109;-73
2021/12/17 11:54:08;;;;;;;14.55;8.55;;;10.50;99.90;;;;;;4125365;28;20034;-72
2021/12/17 11:56:09;;;;;;;14.02;8.30;;;10.40;99.90;;;;;;4105205;28;20035;-72
2021/12/17 11:58:13;;;;;;;12.75;7.68;;;10.40;99.90;;;;;;4126977;28;20034;-72
2021/12/17 12:00:16;;;;;;;14.13;7.80;;;10.50;99.90;;;;;;4107294;28;20050;-73
2021/12/17 12:02:22;;;;;;;14.40;7.88;;;10.50;99.90;;;;;;4122775;28;20157;-73
2021/12/17 12:04:34;;;;;;;14.65;7.80;;;10.50;99.90;;;;;;4123079;28;20023;-72
2021/12/17 12:06:35;;;;;;;14.20;7.78;;;10.50;99.90;;;;;;4132152;28;20081;-72
2021/12/17 12:08:49;;;;;;;10.82;6.85;;;10.40;99.90;;;;;;4126306;28;20031;-72
2021/12/17 12:11:12;;;;;;;12.45;7.10;;;10.50;99.90;;;;;;4126145;28;20043;-72
2021/12/17 12:13:33;;;;;;;12.65;7.03;;;10.50;99.90;;;;;;4125067;28;20027;-72
2021/12/17 12:15:36;;;;;;;13.13;7.40;;;10.50;99.90;;;;;;4125708;28;20582;-73
2021/12/17 12:18:06;;;;;;;13.85;7.50;;;10.50;99.90;;;;;;4121955;28;20042;-72
2021/12/17 12:20:07;;;;;;;11.95;6.90;;;10.50;99.90;;;;;;4122668;28;20527;-72
2021/12/17 12:22:08;;;;;;;10.48;6.50;;;10.50;99.90;;;;;;4110204;28;20034;-72
2021/12/17 12:24:10;;;;;;;12.17;6.83;;;10.50;99.90;;;;;;4116237;28;20387;-72
2021/12/17 12:26:33;;;;;;;10.00;6.30;;;10.50;99.90;;;;;;4121926;28;20286;-72
2021/12/17 12:28:45;;;;;;;11.23;6.70;;;10.50;99.90;;;;;;4119989;28;20034;-72
2021/12/17 12:30:46;;;;;;;11.98;7.10;;;10.50;99.90;;;;;;4136471;28;20113;-72
2021/12/17 12:33:07;;;;;;;12.85;7.35;;;10.50;99.90;;;;;;4106110;28;20043;-72
2021/12/17 12:35:09;;;;;;;13.88;7.05;;;10.50;99.90;;;;;;4126828;28;20030;-72
2021/12/17 12:37:25;;;;;;;10.23;6.00;;;10.60;99.90;;;;;;4110190;28;20027;-72
2021/12/17 12:39:38;;;;;;;10.90;6.55;;;10.50;99.90;;;;;;4109901;28;20066;-72
2021/12/17 12:41:59;;;;;;;11.35;6.65;;;10.60;99.90;;;;;;4123159;28;20088;-72
2021/12/17 12:43:59;;;;;;;11.82;6.88;;;10.60;99.90;;;;;;4127479;28;20109;-72
2021/12/17 12:46:00;;;;;;;10.32;6.57;;;10.60;99.90;;;;;;4102644;28;20015;-72
2021/12/17 12:48:01;;;;;;;11.32;6.63;;;10.50;99.90;;;;;;4106968;28;20038;-72
2021/12/17 12:50:06;;;;;;;14.57;7.13;;;10.50;99.90;;;;;;4105542;28;20031;-72
2021/12/17 12:52:51;;;;;;;10.30;6.93;;;10.50;99.90;;;;;;4114887;28;20109;-72
2021/12/17 12:54:55;;;;;;;10.10;6.65;;;10.60;99.90;;;;;;4110240;28;20164;-72
2021/12/17 12:56:56;;;;;;;10.80;6.28;;;10.60;99.90;;;;;;4120425;28;20031;-72
2021/12/17 12:58:57;;;;;;;12.20;6.18;;;10.60;99.90;;;;;;4127064;28;20380;-72
2021/12/17 13:01:00;;;;;;;10.50;6.35;;;10.60;99.90;;;;;;4104258;28;20026;-72
2021/12/17 13:03:08;;;;;;;10.80;6.03;;;10.60;99.90;;;;;;4120591;28;20116;-72
2021/12/17 13:05:11;;;;;;;9.75;5.68;;;10.60;99.90;;;;;;4117641;28;20023;-72
2021/12/17 13:07:14;;;;;;;10.05;6.35;;;10.60;99.90;;;;;;4114889;28;20022;-72
2021/12/17 13:09:28;;;;;;;8.27;5.38;;;10.60;99.90;;;;;;4111997;28;20081;-72